createdAt,value
2017-10-12T00:01:26.446Z,3.60
2017-10-12T00:03:54.790Z,3.53
2017-10-12T00:06:23.122Z,3.40
2017-10-12T00:08:51.507Z,3.47
2017-10-12T00:11:19.847Z,3.10
2017-10-12T00:13:48.213Z,4.17
2017-10-12T00:16:16.561Z,3.50
2017-10-12T00:18:44.899Z,4.07
2017-10-12T00:21:13.249Z,4.20
2017-10-12T00:23:41.590Z,4.50
2017-10-12T00:26:09.936Z,4.10
2017-10-12T00:28:38.415Z,4.90
2017-10-12T00:31:06.745Z,4.87
2017-10-12T00:33:35.089Z,4.50
2017-10-12T00:36:03.433Z,4.90
2017-10-12T00:38:31.765Z,4.50
2017-10-12T00:41:00.110Z,4.90
2017-10-12T00:43:28.455Z,5.10
2017-10-12T00:45:56.798Z,5.10
2017-10-12T00:48:25.177Z,4.70
2017-10-12T00:50:53.522Z,5.50
2017-10-12T00:53:21.871Z,4.93
2017-10-12T00:55:50.216Z,4.70
2017-10-12T00:58:18.585Z,5.07
2017-10-12T01:00:46.938Z,5.17
2017-10-12T01:03:15.271Z,6.23
2017-10-12T01:05:43.650Z,5.83
2017-10-12T01:08:11.996Z,6.10
2017-10-12T01:10:40.334Z,5.73
2017-10-12T01:13:08.675Z,6.30
2017-10-12T01:15:37.027Z,5.83
2017-10-12T01:18:05.394Z,5.70
2017-10-12T01:20:33.748Z,5.80
2017-10-12T01:23:02.229Z,5.70
2017-10-12T01:25:30.577Z,5.80
2017-10-12T01:27:58.927Z,5.63
2017-10-12T01:30:27.272Z,5.33
2017-10-12T01:32:55.621Z,5.57
2017-10-12T01:35:23.985Z,6.63
2017-10-12T01:37:52.341Z,5.80
2017-10-12T01:40:20.720Z,5.03
2017-10-12T01:42:49.069Z,5.13
2017-10-12T01:45:17.422Z,5.50
2017-10-12T01:47:45.780Z,5.03
2017-10-12T01:50:14.134Z,5.60
2017-10-12T01:52:42.520Z,5.87
2017-10-12T01:55:10.876Z,5.10
2017-10-12T01:57:39.224Z,5.10
2017-10-12T02:00:07.584Z,5.30
2017-10-12T02:02:35.956Z,4.87
2017-10-12T02:05:04.303Z,5.20
2017-10-12T02:07:32.695Z,5.00
2017-10-12T02:10:01.048Z,5.53
2017-10-12T02:12:29.398Z,5.20
2017-10-12T02:14:57.746Z,5.30
2017-10-12T02:17:26.097Z,4.67
2017-10-12T02:19:54.452Z,4.63
2017-10-12T02:22:22.797Z,3.77
2017-10-12T02:24:51.168Z,4.10
2017-10-12T02:27:19.523Z,4.23
2017-10-12T02:29:47.896Z,4.30
2017-10-12T02:32:16.235Z,4.67
2017-10-12T02:34:44.588Z,4.20
2017-10-12T02:37:12.941Z,4.37
2017-10-12T02:39:41.302Z,4.97
2017-10-12T02:42:10.080Z,5.07
2017-10-12T02:44:38.433Z,4.33
2017-10-12T02:47:06.808Z,4.80
2017-10-12T02:49:35.163Z,4.50
2017-10-12T02:52:03.515Z,4.10
2017-10-12T02:54:31.890Z,4.17
2017-10-12T02:57:00.249Z,4.27
2017-10-12T02:59:28.615Z,4.50
2017-10-12T03:01:56.989Z,4.50
2017-10-12T03:04:25.340Z,4.23
2017-10-12T03:06:53.683Z,4.73
2017-10-12T03:09:22.054Z,4.57
2017-10-12T03:11:50.406Z,5.10
2017-10-12T03:14:18.774Z,5.20
2017-10-12T03:16:47.131Z,5.90
2017-10-12T03:19:15.504Z,5.00
2017-10-12T03:21:43.863Z,5.27
2017-10-12T03:24:12.207Z,5.37
2017-10-12T03:26:40.554Z,5.00
2017-10-12T03:29:09.107Z,4.70
2017-10-12T03:31:37.483Z,5.13
2017-10-12T03:34:05.878Z,5.03
2017-10-12T03:36:34.263Z,5.30
2017-10-12T03:39:02.609Z,5.17
2017-10-12T03:41:30.993Z,4.40
2017-10-12T03:43:59.330Z,4.77
2017-10-12T03:46:27.674Z,5.13
2017-10-12T03:48:56.084Z,4.47
2017-10-12T03:51:24.420Z,4.27
2017-10-12T03:53:52.769Z,3.93
2017-10-12T03:56:21.263Z,3.17
2017-10-12T03:58:49.620Z,3.30
2017-10-12T04:01:17.979Z,3.63
2017-10-12T04:03:46.337Z,3.20
2017-10-12T04:06:14.707Z,3.30
2017-10-12T04:08:43.051Z,3.20
2017-10-12T04:11:11.431Z,3.57
2017-10-12T04:13:39.787Z,3.33
2017-10-12T04:16:08.124Z,4.53
2017-10-12T04:18:36.480Z,4.63
2017-10-12T04:21:04.831Z,5.87
2017-10-12T04:23:33.171Z,4.93
2017-10-12T04:26:01.541Z,5.63
2017-10-12T04:28:29.919Z,6.57
2017-10-12T04:30:58.259Z,5.43
2017-10-12T04:33:26.742Z,5.90
2017-10-12T04:35:55.091Z,5.97
2017-10-12T04:38:24.448Z,6.50
2017-10-12T04:40:52.789Z,6.33
2017-10-12T04:43:21.179Z,6.60
2017-10-12T04:45:49.547Z,6.70
2017-10-12T04:48:17.892Z,6.20
2017-10-12T04:50:46.235Z,6.30
2017-10-12T04:53:14.587Z,6.60
2017-10-12T04:55:42.966Z,7.63
2017-10-12T04:58:11.323Z,7.17
2017-10-12T05:00:39.692Z,7.50
2017-10-12T05:03:08.040Z,7.03
2017-10-12T05:05:36.380Z,8.37
2017-10-12T05:08:04.759Z,8.93
2017-10-12T05:10:33.108Z,8.10
2017-10-12T05:13:01.487Z,7.93
2017-10-12T05:15:29.847Z,8.30
2017-10-12T05:17:58.230Z,8.50
2017-10-12T05:20:26.587Z,8.90
2017-10-12T05:22:54.929Z,7.90
2017-10-12T05:25:23.299Z,8.00
2017-10-12T05:27:51.651Z,8.00
2017-10-12T05:30:20.040Z,6.80
2017-10-12T05:32:48.386Z,7.40
2017-10-12T05:35:16.744Z,6.97
2017-10-12T05:37:45.100Z,8.20
2017-10-12T05:40:13.475Z,9.30
2017-10-12T05:42:41.865Z,9.57
2017-10-12T05:45:10.256Z,8.70
2017-10-12T05:47:38.714Z,9.23
2017-10-12T05:50:07.127Z,10.10
2017-10-12T05:52:35.501Z,9.10
2017-10-12T05:55:03.853Z,9.03
2017-10-12T05:57:32.214Z,9.57
2017-10-12T06:00:00.592Z,9.23
2017-10-12T06:02:28.940Z,8.77
2017-10-12T06:04:57.311Z,10.00
2017-10-12T06:07:25.704Z,8.80
2017-10-12T06:09:54.057Z,9.67
2017-10-12T06:12:22.420Z,9.63
2017-10-12T06:14:50.772Z,11.63
2017-10-12T06:17:19.320Z,9.80
2017-10-12T06:19:47.700Z,10.10
2017-10-12T06:22:16.067Z,10.20
2017-10-12T06:24:44.426Z,11.10
2017-10-12T06:27:12.815Z,11.20
2017-10-12T06:29:41.168Z,11.53
2017-10-12T06:32:09.534Z,11.50
2017-10-12T06:34:37.919Z,10.37
2017-10-12T06:37:06.282Z,11.80
2017-10-12T06:39:34.625Z,9.87
2017-10-12T06:42:02.983Z,10.17
2017-10-12T06:44:31.345Z,11.33
2017-10-12T06:46:59.698Z,10.60
2017-10-12T06:49:28.223Z,11.57
2017-10-12T06:51:56.595Z,11.13
2017-10-12T06:54:25.011Z,11.50
2017-10-12T06:56:53.417Z,11.90
2017-10-12T06:59:21.775Z,13.70
2017-10-12T07:01:50.448Z,14.70
2017-10-12T07:04:18.810Z,14.13
2017-10-12T07:06:47.170Z,13.87
2017-10-12T07:09:15.550Z,13.80
2017-10-12T07:11:43.912Z,11.93
2017-10-12T07:14:12.282Z,10.90
2017-10-12T07:16:40.658Z,10.00
2017-10-12T07:19:09.012Z,9.93
2017-10-12T07:21:37.376Z,8.93
2017-10-12T07:24:05.722Z,8.83
2017-10-12T07:26:34.079Z,7.63
2017-10-12T07:29:02.435Z,7.43
2017-10-12T07:31:30.788Z,6.27
2017-10-12T07:33:59.135Z,7.00
2017-10-12T07:36:27.482Z,5.53
2017-10-12T07:38:55.827Z,5.20
2017-10-12T07:41:24.170Z,4.53
2017-10-12T07:43:52.519Z,4.60
2017-10-12T07:46:20.892Z,5.23
2017-10-12T07:48:49.226Z,4.40
2017-10-12T07:51:17.574Z,3.70
2017-10-12T07:53:45.928Z,3.00
2017-10-12T07:56:14.303Z,3.40
2017-10-12T07:58:42.655Z,3.60
2017-10-12T08:01:10.998Z,3.20
2017-10-12T08:03:39.348Z,2.97
2017-10-12T08:06:07.716Z,3.00
2017-10-12T08:08:36.063Z,3.20
2017-10-12T08:11:04.402Z,2.43
2017-10-12T08:13:32.747Z,2.83
2017-10-12T08:16:01.092Z,3.40
2017-10-12T08:18:29.469Z,2.50
2017-10-12T08:20:57.967Z,2.00
2017-10-12T08:23:26.332Z,3.40
2017-10-12T08:25:54.681Z,2.33
2017-10-12T08:28:23.023Z,2.40
2017-10-12T08:30:51.379Z,2.33
2017-10-12T08:33:19.723Z,2.20
2017-10-12T08:35:48.071Z,1.60
2017-10-12T08:38:16.407Z,1.97
2017-10-12T08:40:44.775Z,1.83
2017-10-12T08:43:13.289Z,2.57
2017-10-12T08:45:41.687Z,2.30
2017-10-12T08:48:10.034Z,2.73
2017-10-12T08:50:38.382Z,2.23
2017-10-12T08:53:06.723Z,2.20
2017-10-12T08:55:35.075Z,2.00
2017-10-12T08:58:03.445Z,2.67
2017-10-12T09:00:31.791Z,2.70
2017-10-12T09:03:00.139Z,1.90
2017-10-12T09:05:28.482Z,2.23
2017-10-12T09:07:56.846Z,2.47
2017-10-12T09:10:25.223Z,2.27
2017-10-12T09:12:53.571Z,2.63
2017-10-12T09:15:21.919Z,2.50
2017-10-12T09:17:50.259Z,2.37
2017-10-12T09:20:18.624Z,3.10
2017-10-12T09:22:46.969Z,2.20
2017-10-12T09:25:15.313Z,2.40
2017-10-12T09:27:43.659Z,2.13
2017-10-12T09:30:12.049Z,2.37
2017-10-12T09:32:40.427Z,2.40
2017-10-12T09:35:09.574Z,2.27
2017-10-12T09:37:37.916Z,2.63
2017-10-12T09:40:06.254Z,3.00
2017-10-12T09:42:34.745Z,2.37
2017-10-12T09:45:03.204Z,2.60
2017-10-12T09:47:31.544Z,1.83
2017-10-12T09:49:59.899Z,2.50
2017-10-12T09:52:28.280Z,2.23
2017-10-12T09:54:56.651Z,2.57
2017-10-12T09:57:24.996Z,2.87
2017-10-12T09:59:53.343Z,2.27
2017-10-12T10:02:21.700Z,1.90
2017-10-12T10:04:50.039Z,2.77
2017-10-12T10:07:18.391Z,2.03
2017-10-12T10:09:46.732Z,2.50
2017-10-12T10:12:15.072Z,1.73
2017-10-12T10:14:43.417Z,2.00
2017-10-12T10:17:11.764Z,2.57
2017-10-12T10:19:40.107Z,2.23
2017-10-12T10:22:08.457Z,2.40
2017-10-12T10:24:36.831Z,3.17
2017-10-12T10:27:06.081Z,2.40
2017-10-12T10:29:34.416Z,2.60
2017-10-12T10:32:02.787Z,2.37
2017-10-12T10:34:31.143Z,2.40
2017-10-12T10:36:59.512Z,2.80
2017-10-12T10:39:27.857Z,2.00
2017-10-12T10:41:56.213Z,2.70
2017-10-12T10:44:24.548Z,2.57
2017-10-12T10:46:52.890Z,2.27
2017-10-12T10:49:21.236Z,2.67
2017-10-12T10:51:49.578Z,2.97
2017-10-12T10:54:17.974Z,3.13
2017-10-12T10:56:46.312Z,2.40
2017-10-12T10:59:14.668Z,2.80
2017-10-12T11:01:43.014Z,2.33
2017-10-12T11:04:11.350Z,2.50
2017-10-12T11:06:39.722Z,2.47
2017-10-12T11:09:08.059Z,2.40
2017-10-12T11:11:36.433Z,2.40
2017-10-12T11:14:04.775Z,2.40
2017-10-12T11:16:33.109Z,2.10
2017-10-12T11:19:01.475Z,2.60
2017-10-12T11:21:29.815Z,2.50
2017-10-12T11:23:58.167Z,2.20
2017-10-12T11:26:26.504Z,2.30
2017-10-12T11:28:54.859Z,2.40
2017-10-12T11:31:23.224Z,2.07
2017-10-12T11:33:51.568Z,3.03
2017-10-12T11:36:19.902Z,2.37
2017-10-12T11:38:48.477Z,2.30
2017-10-12T11:41:16.829Z,2.73
2017-10-12T11:43:45.211Z,1.87
2017-10-12T11:46:13.559Z,2.33
2017-10-12T11:48:41.908Z,2.40
2017-10-12T11:51:10.263Z,2.73
2017-10-12T11:53:38.609Z,2.70
2017-10-12T11:56:06.981Z,1.63
2017-10-12T11:58:35.327Z,2.23
2017-10-12T12:01:03.708Z,1.90
2017-10-12T12:03:32.048Z,1.90
2017-10-12T12:06:00.399Z,2.17
2017-10-12T12:08:28.739Z,1.60
2017-10-12T12:10:57.993Z,1.77
2017-10-12T12:13:26.326Z,2.00
2017-10-12T12:15:54.669Z,2.23
2017-10-12T12:18:23.011Z,1.67
2017-10-12T12:20:51.376Z,1.90
2017-10-12T12:23:19.724Z,2.00
2017-10-12T12:25:48.069Z,1.50
2017-10-12T12:28:16.408Z,2.07
2017-10-12T12:30:44.792Z,2.13
2017-10-12T12:33:13.454Z,2.27
2017-10-12T12:35:41.797Z,1.67
2017-10-12T12:38:10.127Z,2.10
2017-10-12T12:40:38.471Z,2.30
2017-10-12T12:43:06.835Z,2.30
2017-10-12T12:45:35.215Z,2.07
2017-10-12T12:48:03.563Z,2.70
2017-10-12T12:50:31.906Z,2.20
2017-10-12T12:53:00.287Z,2.43
2017-10-12T12:55:28.627Z,2.40
2017-10-12T12:57:56.979Z,2.57
2017-10-12T13:00:25.327Z,2.50
2017-10-12T13:02:53.671Z,2.53
2017-10-12T13:05:22.008Z,2.57
2017-10-12T13:07:50.383Z,2.90
2017-10-12T13:10:18.734Z,2.60
2017-10-12T13:12:47.087Z,3.50
2017-10-12T13:15:15.455Z,2.97
2017-10-12T13:17:43.795Z,3.30
2017-10-12T13:20:12.164Z,3.47
2017-10-12T13:22:40.511Z,3.47
2017-10-12T13:25:08.851Z,4.37
2017-10-12T13:27:37.203Z,3.73
2017-10-12T13:30:05.543Z,3.63
2017-10-12T13:32:33.887Z,3.20
2017-10-12T13:35:02.239Z,3.80
2017-10-12T13:37:30.611Z,3.43
2017-10-12T13:39:58.959Z,3.67
2017-10-12T13:42:27.303Z,3.00
2017-10-12T13:44:55.667Z,3.30
2017-10-12T13:47:24.017Z,3.53
2017-10-12T13:49:52.558Z,3.27
2017-10-12T13:52:20.922Z,2.80
2017-10-12T13:54:49.269Z,3.40
2017-10-12T13:57:17.638Z,2.90
2017-10-12T13:59:45.982Z,3.20
2017-10-12T14:02:14.324Z,3.63
2017-10-12T14:04:42.670Z,3.20
2017-10-12T14:07:11.184Z,3.03
2017-10-12T14:09:39.528Z,3.60
2017-10-12T14:12:07.881Z,3.00
2017-10-12T14:14:36.220Z,3.00
2017-10-12T14:17:04.564Z,3.10
2017-10-12T14:19:32.962Z,3.47
2017-10-12T14:22:01.303Z,3.10
2017-10-12T14:24:29.655Z,3.07
2017-10-12T14:26:57.987Z,3.10
2017-10-12T14:29:26.323Z,3.63
2017-10-12T14:31:54.660Z,3.50
2017-10-12T14:34:23.038Z,3.60
2017-10-12T14:36:51.416Z,3.00
2017-10-12T14:39:19.747Z,3.10
2017-10-12T14:41:48.991Z,2.93
2017-10-12T14:44:17.331Z,3.20
2017-10-12T14:46:45.684Z,3.50
2017-10-12T14:49:14.023Z,2.83
2017-10-12T14:51:42.411Z,3.40
2017-10-12T14:54:10.787Z,3.80
2017-10-12T14:56:39.141Z,4.27
2017-10-12T14:59:07.504Z,3.90
2017-10-12T15:01:35.899Z,3.67
2017-10-12T15:04:04.823Z,3.70
2017-10-12T15:06:33.970Z,3.40
2017-10-12T15:09:02.311Z,3.97
2017-10-12T15:11:30.656Z,3.43
2017-10-12T15:13:58.996Z,3.50
2017-10-12T15:16:27.334Z,3.50
2017-10-12T15:18:55.680Z,3.10
2017-10-12T15:21:24.023Z,3.40
2017-10-12T15:23:52.363Z,3.33
2017-10-12T15:26:20.847Z,3.67
2017-10-12T15:28:49.187Z,2.83
2017-10-12T15:31:17.526Z,3.20
2017-10-12T15:33:45.876Z,3.80
2017-10-12T15:36:14.224Z,3.10
2017-10-12T15:38:42.591Z,3.37
2017-10-12T15:41:10.942Z,3.70
2017-10-12T15:43:39.300Z,3.43
2017-10-12T15:46:07.644Z,3.40
2017-10-12T15:48:36.024Z,4.17
2017-10-12T15:51:04.381Z,4.10
2017-10-12T15:53:32.724Z,3.97
2017-10-12T15:56:01.086Z,3.80
2017-10-12T15:58:29.427Z,3.80
2017-10-12T16:00:57.771Z,3.60
2017-10-12T16:03:26.111Z,4.23
2017-10-12T16:05:54.460Z,3.97
2017-10-12T16:08:22.800Z,3.53
2017-10-12T16:10:51.142Z,3.40
2017-10-12T16:13:19.544Z,4.20
2017-10-12T16:15:47.887Z,3.60
2017-10-12T16:18:16.238Z,3.73
2017-10-12T16:20:44.576Z,3.27
2017-10-12T16:23:12.935Z,3.90
2017-10-12T16:25:41.284Z,3.50
2017-10-12T16:28:09.653Z,3.50
2017-10-12T16:30:38.036Z,3.90
2017-10-12T16:35:34.729Z,2.60
2017-10-12T16:38:03.069Z,3.33
2017-10-12T16:40:31.407Z,3.90
2017-10-12T16:42:59.896Z,3.90
2017-10-12T16:45:28.632Z,4.10
2017-10-12T16:47:56.979Z,3.80
2017-10-12T16:50:54.029Z,2.90
2017-10-12T16:52:54.268Z,3.40
2017-10-12T16:57:51.426Z,3.43
2017-10-12T17:00:19.852Z,3.70
2017-10-12T17:02:48.207Z,3.60
2017-10-12T17:05:16.747Z,3.90
2017-10-12T17:07:45.144Z,3.50
2017-10-12T17:10:13.479Z,3.23
2017-10-12T17:12:42.216Z,3.70
2017-10-12T17:15:10.587Z,3.40
2017-10-12T17:17:38.942Z,3.40
2017-10-12T17:20:07.293Z,3.30
2017-10-12T17:22:35.639Z,3.10
2017-10-12T17:25:03.991Z,3.43
2017-10-12T17:27:32.388Z,3.00
2017-10-12T17:30:01.828Z,3.70
2017-10-12T17:32:30.180Z,2.80
2017-10-12T17:34:58.554Z,2.80
2017-10-12T17:37:26.899Z,2.93
2017-10-12T17:39:55.246Z,3.70
2017-10-12T17:42:23.597Z,3.03
2017-10-12T17:44:51.945Z,3.50
2017-10-12T17:47:20.340Z,3.00
2017-10-12T17:49:48.677Z,2.83
2017-10-12T17:52:17.050Z,3.33
2017-10-12T17:54:45.387Z,3.10
2017-10-12T17:57:13.728Z,3.10
2017-10-12T17:59:42.072Z,2.70
2017-10-12T18:02:10.421Z,2.90
2017-10-12T18:04:45.753Z,3.57
2017-10-12T18:07:07.153Z,3.30
2017-10-12T18:09:35.521Z,3.20
2017-10-12T18:14:32.225Z,2.87
2017-10-12T18:17:00.602Z,2.80
2017-10-12T18:19:29.456Z,2.87
2017-10-12T18:24:26.162Z,3.07
2017-10-12T18:26:54.546Z,3.50
2017-10-12T18:29:22.900Z,3.43
2017-10-12T18:31:51.247Z,3.10
2017-10-12T18:34:19.623Z,2.70
2017-10-12T18:36:47.975Z,3.03
2017-10-12T18:39:16.316Z,2.60
2017-10-12T18:41:44.692Z,2.60
2017-10-12T18:44:14.096Z,3.20
2017-10-12T18:46:42.452Z,3.07
2017-10-12T18:49:10.818Z,3.10
2017-10-12T18:51:39.158Z,3.17
2017-10-12T18:54:07.499Z,3.77
2017-10-12T18:56:35.866Z,2.90
2017-10-12T18:59:04.240Z,3.33
2017-10-12T19:01:32.596Z,2.97
2017-10-12T19:04:00.942Z,3.00
2017-10-12T19:06:29.321Z,3.07
2017-10-12T19:08:57.691Z,3.60
2017-10-12T19:11:26.364Z,2.90
2017-10-12T19:13:54.699Z,3.23
2017-10-12T19:16:23.051Z,3.87
2017-10-12T19:18:51.398Z,2.60
2017-10-12T19:21:19.772Z,4.17
2017-10-12T19:23:48.125Z,2.90
2017-10-12T19:26:16.460Z,3.23
2017-10-12T19:28:44.818Z,3.37
2017-10-12T19:31:13.155Z,3.60
2017-10-12T19:33:41.499Z,2.70
2017-10-12T19:36:09.847Z,3.10
2017-10-12T19:38:38.196Z,3.40
2017-10-12T19:43:34.893Z,5.00
2017-10-12T19:46:03.238Z,3.10
2017-10-12T19:48:31.624Z,4.13
2017-10-12T19:51:30.032Z,3.83
2017-10-12T19:53:29.162Z,4.10
2017-10-12T19:58:26.558Z,4.73
2017-10-12T20:00:55.357Z,3.57
2017-10-12T20:03:24.000Z,3.00
2017-10-12T20:05:52.347Z,3.50
2017-10-12T20:08:20.708Z,3.50
2017-10-12T20:10:49.079Z,4.40
2017-10-12T20:13:17.431Z,3.37
2017-10-12T20:15:45.782Z,3.57
2017-10-12T20:18:14.125Z,4.50
2017-10-12T20:20:42.497Z,3.63
2017-10-12T20:23:10.852Z,3.37
2017-10-12T20:25:39.223Z,3.30
2017-10-12T20:28:07.569Z,3.97
2017-10-12T20:30:35.914Z,3.10
2017-10-12T20:33:04.259Z,5.03
2017-10-12T20:35:32.620Z,4.20
2017-10-12T20:38:00.958Z,4.20
2017-10-12T20:40:29.300Z,3.77
2017-10-12T20:42:57.676Z,4.70
2017-10-12T20:45:26.016Z,4.93
2017-10-12T20:47:54.391Z,4.60
2017-10-12T20:50:22.745Z,4.13
2017-10-12T20:52:51.088Z,4.10
2017-10-12T20:55:19.492Z,4.10
2017-10-12T20:57:47.840Z,4.83
2017-10-12T21:00:16.191Z,3.53
2017-10-12T21:05:12.888Z,3.47
2017-10-12T21:07:41.239Z,3.60
2017-10-12T21:10:09.583Z,3.53
2017-10-12T21:12:37.955Z,3.93
2017-10-12T21:15:06.303Z,5.00
2017-10-12T21:17:34.670Z,3.30
2017-10-12T21:20:03.024Z,4.77
2017-10-12T21:22:31.370Z,3.57
2017-10-12T21:24:59.716Z,4.30
2017-10-12T21:27:28.064Z,3.73
2017-10-12T21:29:56.414Z,3.50
2017-10-12T21:32:24.760Z,3.63
2017-10-12T21:34:53.137Z,3.70
2017-10-12T21:37:21.483Z,3.57
2017-10-12T21:39:49.834Z,3.00
2017-10-12T21:42:18.211Z,3.90
2017-10-12T21:44:46.560Z,3.80
2017-10-12T21:47:14.908Z,4.60
2017-10-12T21:49:43.255Z,4.20
2017-10-12T21:52:11.591Z,3.73
2017-10-12T21:54:39.939Z,3.60
2017-10-12T21:57:08.988Z,3.27
2017-10-12T21:59:37.335Z,3.20
2017-10-12T22:02:05.679Z,3.07
2017-10-12T22:04:34.052Z,3.40
2017-10-12T22:07:02.395Z,3.10
2017-10-12T22:09:30.739Z,3.13
2017-10-12T22:11:59.083Z,3.00
2017-10-12T22:14:27.464Z,3.50
2017-10-12T22:16:55.814Z,3.17
2017-10-12T22:19:24.150Z,4.10
2017-10-12T22:21:52.508Z,4.40
2017-10-12T22:24:20.879Z,4.10
2017-10-12T22:26:49.223Z,3.40
2017-10-12T22:29:17.562Z,4.30
2017-10-12T22:31:45.902Z,3.90
2017-10-12T22:34:14.270Z,4.00
2017-10-12T22:36:42.619Z,3.80
2017-10-12T22:39:10.982Z,3.30
2017-10-12T22:41:40.207Z,3.60
2017-10-12T22:44:08.548Z,4.70
2017-10-12T22:46:36.930Z,4.40
2017-10-12T22:49:05.279Z,3.50
2017-10-12T22:51:33.627Z,3.90
2017-10-12T22:54:02.288Z,3.30
2017-10-12T22:56:30.631Z,3.77
2017-10-12T22:58:58.979Z,3.20
2017-10-12T23:01:27.328Z,4.50
2017-10-12T23:03:55.710Z,4.07
2017-10-12T23:06:24.053Z,5.23
2017-10-12T23:08:52.404Z,3.83
2017-10-12T23:11:20.751Z,4.27
2017-10-12T23:13:49.107Z,4.10
2017-10-12T23:16:17.455Z,3.90
2017-10-12T23:18:45.807Z,4.90
2017-10-12T23:21:14.151Z,4.53
2017-10-12T23:23:42.502Z,3.20
2017-10-12T23:26:10.867Z,5.53
2017-10-12T23:28:39.206Z,4.40
2017-10-12T23:31:07.559Z,5.00
2017-10-12T23:33:35.941Z,4.43
2017-10-12T23:36:04.287Z,5.37
2017-10-12T23:38:32.643Z,4.43
2017-10-12T23:41:00.991Z,4.60
2017-10-12T23:43:29.344Z,4.63
2017-10-12T23:45:57.722Z,3.93
2017-10-12T23:48:26.070Z,3.90
2017-10-12T23:50:54.424Z,3.43
2017-10-12T23:53:22.772Z,3.80
2017-10-12T23:55:51.120Z,4.20
2017-10-12T23:58:19.460Z,4.40
